Portada
METAR-TAF:

METAR-TAF

Aeropuertos :

Pell City, Alabama, Estados Unidos

latitud: 33-33-32N, longitud: 086-14-57W, altitud: 148 m

Observación

El informe se hizo hace 22 minutos, a las 17:55 UTC
Viento 4 kt del noroeste
Temperatura 11°C
Humedad 94%
Presión 1016 hPa
Visibilidad: 16.1 km
Cielo nuboso a una altura de 2100 ft
Cielo cubierto a una altura de 2600 ft

METAR: KPLR 271755Z AUTO 31004KT 10SM BKN021 OVC026 11/10 A2999 RMK A01

Hora: 12:17 (18:17 UTC)


TAF: falta

Observaciones y pronósticos meteorológicos de más de 4000 aeropuertos (mensajes METAR y TAF).

Los puntos amarillos y rojos representan las estaciones disponibles.

Ponga el ratón en el punto deseado para ver el nombre de la estación.

Haga clic para ver las observaciones y los pronósticos meteorológicos.

Para cambiar el mapa : haga clic en los botones verdes con una cruz de color negro para hacer un zoom, en el botón verde con un guión para alejar o en las flechas verdes para mapas adyacentes.


METAR-TAF: